sensor_id;sensor_type;location;lat;lon;timestamp;pressure;altitude;pressure_sealevel;temperature;humidity
22755;BME280;11544;42.020;23.094;2023-02-19T00:21:17;97607.94;;;4.60;88.56
22755;BME280;11544;42.020;23.094;2023-02-19T00:23:49;97606.97;;;4.81;89.06
22755;BME280;11544;42.020;23.094;2023-02-19T00:26:17;97612.41;;;4.27;89.64
22755;BME280;11544;42.020;23.094;2023-02-19T00:50:22;97608.06;;;4.34;89.04
22755;BME280;11544;42.020;23.094;2023-02-19T00:52:49;97599.47;;;4.38;90.23
22755;BME280;11544;42.020;23.094;2023-02-19T00:55:15;97596.13;;;4.16;90.36
22755;BME280;11544;42.020;23.094;2023-02-19T00:57:42;97599.50;;;4.30;91.95
22755;BME280;11544;42.020;23.094;2023-02-19T01:21:39;97592.56;;;4.44;91.17
22755;BME280;11544;42.020;23.094;2023-02-19T01:24:06;97580.41;;;4.62;90.40
22755;BME280;11544;42.020;23.094;2023-02-19T01:26:33;97576.03;;;4.72;88.82
22755;BME280;11544;42.020;23.094;2023-02-19T01:53:32;97579.03;;;3.70;94.20
22755;BME280;11544;42.020;23.094;2023-02-19T01:56:00;97582.53;;;3.52;95.63
22755;BME280;11544;42.020;23.094;2023-02-19T01:58:31;97584.28;;;3.32;96.69
22755;BME280;11544;42.020;23.094;2023-02-19T07:45:11;97768.31;;;7.41;67.49
22755;BME280;11544;42.020;23.094;2023-02-19T07:48:17;97751.50;;;8.71;65.65
22755;BME280;11544;42.020;23.094;2023-02-19T07:51:04;97746.88;;;9.66;61.21
22755;BME280;11544;42.020;23.094;2023-02-19T07:56:47;97742.22;;;9.41;57.73
22755;BME280;11544;42.020;23.094;2023-02-19T07:59:24;97734.97;;;9.56;57.94
22755;BME280;11544;42.020;23.094;2023-02-19T08:12:39;97708.22;;;11.14;55.16
22755;BME280;11544;42.020;23.094;2023-02-19T08:15:43;97697.84;;;11.13;53.47
22755;BME280;11544;42.020;23.094;2023-02-19T08:21:43;97704.13;;;9.76;56.64
22755;BME280;11544;42.020;23.094;2023-02-19T08:24:14;97694.47;;;12.19;63.80
22755;BME280;11544;42.020;23.094;2023-02-19T08:32:11;97675.94;;;12.99;54.70
22755;BME280;11544;42.020;23.094;2023-02-19T08:35:13;97684.88;;;12.44;54.77
22755;BME280;11544;42.020;23.094;2023-02-19T08:37:40;97677.34;;;12.35;52.23
22755;BME280;11544;42.020;23.094;2023-02-19T08:40:07;97672.41;;;13.00;51.54
22755;BME280;11544;42.020;23.094;2023-02-19T08:42:35;97681.63;;;12.63;50.64
22755;BME280;11544;42.020;23.094;2023-02-19T08:45:02;97685.72;;;11.66;52.03
22755;BME280;11544;42.020;23.094;2023-02-19T08:47:30;97674.44;;;11.10;52.92
22755;BME280;11544;42.020;23.094;2023-02-19T08:49:57;97680.00;;;10.99;53.56
22755;BME280;11544;42.020;23.094;2023-02-19T08:52:24;97659.03;;;13.07;52.16
22755;BME280;11544;42.020;23.094;2023-02-19T08:54:51;97663.34;;;10.73;53.46
22755;BME280;11544;42.020;23.094;2023-02-19T08:57:18;97655.13;;;11.98;52.87
22755;BME280;11544;42.020;23.094;2023-02-19T08:59:44;97645.63;;;11.96;52.99
22755;BME280;11544;42.020;23.094;2023-02-19T09:02:12;97640.72;;;11.60;52.10
22755;BME280;11544;42.020;23.094;2023-02-19T09:04:38;97634.19;;;11.45;52.61
22755;BME280;11544;42.020;23.094;2023-02-19T09:07:05;97640.53;;;11.38;52.99
22755;BME280;11544;42.020;23.094;2023-02-19T09:09:38;97632.91;;;11.32;54.02
22755;BME280;11544;42.020;23.094;2023-02-19T09:12:07;97620.41;;;11.95;54.18
22755;BME280;11544;42.020;23.094;2023-02-19T09:14:37;97623.06;;;13.12;51.27
22755;BME280;11544;42.020;23.094;2023-02-19T09:17:26;97614.84;;;12.29;51.42
22755;BME280;11544;42.020;23.094;2023-02-19T09:20:10;97607.81;;;12.31;51.20
22755;BME280;11544;42.020;23.094;2023-02-19T09:22:37;97605.47;;;11.98;53.38
22755;BME280;11544;42.020;23.094;2023-02-19T09:25:04;97601.16;;;12.22;52.40
22755;BME280;11544;42.020;23.094;2023-02-19T09:27:31;97601.59;;;12.10;52.51
22755;BME280;11544;42.020;23.094;2023-02-19T09:29:59;97583.47;;;12.05;51.60
22755;BME280;11544;42.020;23.094;2023-02-19T09:32:29;97589.03;;;12.20;52.74
22755;BME280;11544;42.020;23.094;2023-02-19T09:34:58;97575.28;;;13.07;51.46
22755;BME280;11544;42.020;23.094;2023-02-19T09:37:28;97566.94;;;12.76;50.73
22755;BME280;11544;42.020;23.094;2023-02-19T09:39:55;97561.91;;;13.37;50.55
22755;BME280;11544;42.020;23.094;2023-02-19T09:42:39;97561.03;;;13.14;50.22
22755;BME280;11544;42.020;23.094;2023-02-19T09:45:07;97564.00;;;13.05;50.12
22755;BME280;11544;42.020;23.094;2023-02-19T09:47:34;97560.25;;;13.34;49.83
22755;BME280;11544;42.020;23.094;2023-02-19T09:50:06;97554.75;;;13.41;49.81
22755;BME280;11544;42.020;23.094;2023-02-19T09:52:42;97549.22;;;13.26;49.34
22755;BME280;11544;42.020;23.094;2023-02-19T09:55:33;97541.03;;;13.76;48.30
22755;BME280;11544;42.020;23.094;2023-02-19T09:58:44;97527.69;;;14.22;45.55
22755;BME280;11544;42.020;23.094;2023-02-19T10:01:15;97524.28;;;14.20;46.37
22755;BME280;11544;42.020;23.094;2023-02-19T10:03:47;97501.13;;;14.49;44.87
22755;BME280;11544;42.020;23.094;2023-02-19T10:06:21;97501.91;;;14.51;45.16
22755;BME280;11544;42.020;23.094;2023-02-19T10:08:53;97493.06;;;14.72;43.75
22755;BME280;11544;42.020;23.094;2023-02-19T10:11:22;97491.75;;;14.43;44.33
22755;BME280;11544;42.020;23.094;2023-02-19T10:14:03;97487.28;;;14.45;43.81
22755;BME280;11544;42.020;23.094;2023-02-19T10:16:32;97477.81;;;14.98;44.11
22755;BME280;11544;42.020;23.094;2023-02-19T10:18:59;97481.63;;;14.54;44.82
22755;BME280;11544;42.020;23.094;2023-02-19T10:21:27;97481.50;;;14.76;44.17
22755;BME280;11544;42.020;23.094;2023-02-19T10:23:58;97468.06;;;14.82;42.79
22755;BME280;11544;42.020;23.094;2023-02-19T10:26:45;97460.78;;;14.32;44.41
22755;BME280;11544;42.020;23.094;2023-02-19T10:29:33;97455.81;;;14.64;44.44
22755;BME280;11544;42.020;23.094;2023-02-19T10:32:18;97451.06;;;14.53;45.41
22755;BME280;11544;42.020;23.094;2023-02-19T10:34:47;97442.38;;;14.89;44.31
22755;BME280;11544;42.020;23.094;2023-02-19T10:37:26;97431.28;;;15.19;44.01
22755;BME280;11544;42.020;23.094;2023-02-19T10:39:57;97423.91;;;15.25;42.54
22755;BME280;11544;42.020;23.094;2023-02-19T10:42:24;97424.69;;;15.28;42.94
22755;BME280;11544;42.020;23.094;2023-02-19T10:47:29;97406.91;;;15.50;42.23
22755;BME280;11544;42.020;23.094;2023-02-19T10:50:00;97395.03;;;15.43;42.35
22755;BME280;11544;42.020;23.094;2023-02-19T10:52:33;97386.41;;;15.74;42.13
22755;BME280;11544;42.020;23.094;2023-02-19T10:57:54;97375.25;;;16.02;41.52
22755;BME280;11544;42.020;23.094;2023-02-19T11:00:26;97366.84;;;16.12;39.98
22755;BME280;11544;42.020;23.094;2023-02-19T11:03:21;97355.75;;;16.06;39.60
22755;BME280;11544;42.020;23.094;2023-02-19T11:05:59;97354.81;;;16.23;38.70
22755;BME280;11544;42.020;23.094;2023-02-19T11:08:28;97346.91;;;16.23;38.97
22755;BME280;11544;42.020;23.094;2023-02-19T11:10:55;97335.38;;;16.26;39.36
22755;BME280;11544;42.020;23.094;2023-02-19T11:13:29;97327.00;;;15.87;38.93
22755;BME280;11544;42.020;23.094;2023-02-19T11:15:58;97317.41;;;15.86;38.82
22755;BME280;11544;42.020;23.094;2023-02-19T11:18:31;97311.75;;;16.40;37.44
22755;BME280;11544;42.020;23.094;2023-02-19T11:21:03;97304.94;;;16.52;37.18
22755;BME280;11544;42.020;23.094;2023-02-19T11:23:34;97305.63;;;16.70;36.57
22755;BME280;11544;42.020;23.094;2023-02-19T11:26:05;97295.22;;;16.68;36.83
22755;BME280;11544;42.020;23.094;2023-02-19T11:28:35;97291.03;;;16.50;37.01
22755;BME280;11544;42.020;23.094;2023-02-19T11:31:13;97281.47;;;16.93;38.68
22755;BME280;11544;42.020;23.094;2023-02-19T11:33:52;97274.06;;;17.00;37.04
22755;BME280;11544;42.020;23.094;2023-02-19T11:39:01;97259.28;;;17.12;37.93
22755;BME280;11544;42.020;23.094;2023-02-19T11:45:05;97244.91;;;17.18;36.08
22755;BME280;11544;42.020;23.094;2023-02-19T11:48:06;97230.41;;;16.82;36.52
22755;BME280;11544;42.020;23.094;2023-02-19T11:53:32;97234.81;;;16.81;36.01
22755;BME280;11544;42.020;23.094;2023-02-19T11:56:39;97224.63;;;17.61;36.66
22755;BME280;11544;42.020;23.094;2023-02-19T11:59:31;97218.28;;;17.78;34.83
22755;BME280;11544;42.020;23.094;2023-02-19T12:10:42;97203.25;;;17.66;35.50
22755;BME280;11544;42.020;23.094;2023-02-19T12:13:39;97192.78;;;18.06;34.49
22755;BME280;11544;42.020;23.094;2023-02-19T12:16:30;97187.03;;;18.26;34.97
22755;BME280;11544;42.020;23.094;2023-02-19T12:21:50;97181.09;;;18.23;34.25
22755;BME280;11544;42.020;23.094;2023-02-19T12:24:34;97176.50;;;18.52;33.63
22755;BME280;11544;42.020;23.094;2023-02-19T12:27:24;97177.28;;;18.79;33.68
22755;BME280;11544;42.020;23.094;2023-02-19T12:30:35;97165.44;;;18.98;32.22
22755;BME280;11544;42.020;23.094;2023-02-19T12:39:33;97137.97;;;19.00;32.55
22755;BME280;11544;42.020;23.094;2023-02-19T12:44:51;97134.44;;;19.13;32.28
22755;BME280;11544;42.020;23.094;2023-02-19T12:47:26;97111.41;;;19.15;32.24
22755;BME280;11544;42.020;23.094;2023-02-19T12:52:40;97108.03;;;19.13;32.20
22755;BME280;11544;42.020;23.094;2023-02-19T12:55:30;97106.03;;;19.16;32.89
22755;BME280;11544;42.020;23.094;2023-02-19T12:58:01;97099.84;;;19.29;31.73
22755;BME280;11544;42.020;23.094;2023-02-19T13:00:52;97109.09;;;19.10;32.76
22755;BME280;11544;42.020;23.094;2023-02-19T13:03:29;97094.88;;;19.00;32.26
22755;BME280;11544;42.020;23.094;2023-02-19T13:06:08;97088.09;;;18.96;32.22
22755;BME280;11544;42.020;23.094;2023-02-19T13:08:55;97089.63;;;19.24;32.77
22755;BME280;11544;42.020;23.094;2023-02-19T13:11:38;97082.66;;;19.23;33.24
22755;BME280;11544;42.020;23.094;2023-02-19T13:14:21;97080.94;;;19.46;32.47
22755;BME280;11544;42.020;23.094;2023-02-19T13:19:49;97063.25;;;19.11;31.98
22755;BME280;11544;42.020;23.094;2023-02-19T13:25:28;97054.31;;;19.49;31.86
22755;BME280;11544;42.020;23.094;2023-02-19T13:37:49;97037.25;;;19.29;31.62
22755;BME280;11544;42.020;23.094;2023-02-19T13:59:36;97022.25;;;18.56;33.94
22755;BME280;11544;42.020;23.094;2023-02-19T14:02:31;97021.56;;;18.91;33.45
22755;BME280;11544;42.020;23.094;2023-02-19T14:05:54;97019.59;;;19.06;32.82
22755;BME280;11544;42.020;23.094;2023-02-19T14:11:15;97018.13;;;19.01;32.33
22755;BME280;11544;42.020;23.094;2023-02-19T14:13:59;97010.78;;;19.18;32.58
22755;BME280;11544;42.020;23.094;2023-02-19T14:36:18;97002.38;;;18.63;33.82
22755;BME280;11544;42.020;23.094;2023-02-19T14:38:53;96993.94;;;18.58;33.39
22755;BME280;11544;42.020;23.094;2023-02-19T14:41:21;96999.66;;;18.52;34.31
22755;BME280;11544;42.020;23.094;2023-02-19T14:43:51;96994.78;;;18.58;33.33
22755;BME280;11544;42.020;23.094;2023-02-19T14:46:40;96999.31;;;18.56;34.10
22755;BME280;11544;42.020;23.094;2023-02-19T14:49:17;97009.81;;;18.32;33.76
22755;BME280;11544;42.020;23.094;2023-02-19T14:51:52;97003.81;;;18.05;34.22
22755;BME280;11544;42.020;23.094;2023-02-19T14:54:52;97008.34;;;17.90;34.71
22755;BME280;11544;42.020;23.094;2023-02-19T14:57:42;97012.19;;;17.71;34.89
22755;BME280;11544;42.020;23.094;2023-02-19T15:02:51;97016.09;;;17.78;34.89
22755;BME280;11544;42.020;23.094;2023-02-19T15:05:30;97017.75;;;17.81;34.87
22755;BME280;11544;42.020;23.094;2023-02-19T15:08:00;97013.06;;;17.72;34.89
22755;BME280;11544;42.020;23.094;2023-02-19T15:10:29;97020.19;;;17.57;35.28
22755;BME280;11544;42.020;23.094;2023-02-19T15:13:05;97012.28;;;17.57;35.61
22755;BME280;11544;42.020;23.094;2023-02-19T15:15:43;97019.81;;;17.36;35.79
22755;BME280;11544;42.020;23.094;2023-02-19T15:18:19;97011.59;;;17.41;35.87
22755;BME280;11544;42.020;23.094;2023-02-19T15:20:48;97011.50;;;17.42;35.79
22755;BME280;11544;42.020;23.094;2023-02-19T15:23:21;97015.34;;;17.24;36.15
22755;BME280;11544;42.020;23.094;2023-02-19T15:25:49;97015.41;;;17.09;36.48
22755;BME280;11544;42.020;23.094;2023-02-19T15:28:33;97012.34;;;17.43;44.26
22755;BME280;11544;42.020;23.094;2023-02-19T16:29:01;97095.47;;;14.32;45.01
22755;BME280;11544;42.020;23.094;2023-02-19T17:43:04;97120.69;;;12.71;50.14
22755;BME280;11544;42.020;23.094;2023-02-19T17:51:31;97125.50;;;12.81;49.60
22755;BME280;11544;42.020;23.094;2023-02-19T18:27:10;97141.28;;;12.40;50.44
22755;BME280;11544;42.020;23.094;2023-02-19T22:44:54;97412.75;;;8.33;71.68
22755;BME280;11544;42.020;23.094;2023-02-19T22:56:34;97413.28;;;8.48;72.40
22755;BME280;11544;42.020;23.094;2023-02-19T22:59:08;97415.22;;;8.00;72.27
22755;BME280;11544;42.020;23.094;2023-02-19T23:01:41;97413.31;;;8.08;73.19
22755;BME280;11544;42.020;23.094;2023-02-19T23:04:15;97420.38;;;8.01;73.05
22755;BME280;11544;42.020;23.094;2023-02-19T23:06:45;97424.69;;;8.02;74.23
22755;BME280;11544;42.020;23.094;2023-02-19T23:09:23;97425.94;;;7.84;74.72
22755;BME280;11544;42.020;23.094;2023-02-19T23:12:09;97429.03;;;8.02;74.35
22755;BME280;11544;42.020;23.094;2023-02-19T23:14:37;97429.75;;;8.09;73.72
22755;BME280;11544;42.020;23.094;2023-02-19T23:17:05;97436.59;;;8.13;73.78
22755;BME280;11544;42.020;23.094;2023-02-19T23:19:34;97434.56;;;8.25;72.71
22755;BME280;11544;42.020;23.094;2023-02-19T23:36:25;97441.63;;;8.19;72.42
22755;BME280;11544;42.020;23.094;2023-02-19T23:39:03;97449.63;;;8.10;73.11
22755;BME280;11544;42.020;23.094;2023-02-19T23:41:37;97445.16;;;8.16;73.66
22755;BME280;11544;42.020;23.094;2023-02-19T23:44:08;97457.19;;;8.59;72.16
22755;BME280;11544;42.020;23.094;2023-02-19T23:46:35;97456.81;;;8.37;72.43
22755;BME280;11544;42.020;23.094;2023-02-19T23:49:02;97456.41;;;8.56;71.92
22755;BME280;11544;42.020;23.094;2023-02-19T23:51:37;97452.56;;;8.72;71.66
22755;BME280;11544;42.020;23.094;2023-02-19T23:54:04;97459.91;;;8.90;71.89
22755;BME280;11544;42.020;23.094;2023-02-19T23:56:50;97461.06;;;9.13;70.66
22755;BME280;11544;42.020;23.094;2023-02-19T23:59:29;97457.50;;;9.50;69.88
